Isola Bianca — ICLD — position and weather

sailwx.info

Track history (hours):
 
Tides and Currents Weather Stations Pressure Air Temp Water Temp Dewpoint Dewpoint Depression Visibility Wind Speed Wind Dir Waves Ship Positions

Isola Bianca

Last reported at 2015-Mar-30 13:31 UTC. Time now 2015-Mar-30 14:10 UTC.
Position N 43°24' E 004°60'.

Length 183 m; draft 7.5 m.

Type: Ship. MMSI: 247245200.

Date/timePositionNaut miles runAvg speedWind from/ knotsBaromVisibWave heightAir tempDewpointWater temp
2015-Mar-30 13:31N 43°24' E 004°60'0 0.0
2015-Mar-30 12:28N 43°24' E 004°60'0 0.0
2015-Mar-30 11:31N 43°24' E 004°60'0 0.0
2015-Mar-30 10:28N 43°24' E 004°60'0 0.0
2015-Mar-30 09:31N 43°24' E 004°60'0 0.0
2015-Mar-30 08:31N 43°24' E 004°60'0 0.0
2015-Mar-30 07:28N 43°24' E 004°60'0 0.0
2015-Mar-30 06:33N 43°24' E 004°60'0 0.2
2015-Mar-30 05:34N 43°24' E 004°60'1 1.1
2015-Mar-30 04:30N 43°23' E 004°58'0 0.0
2015-Mar-30 03:30N 43°23' E 004°58'0 0.0
2015-Mar-30 02:30N 43°23' E 004°58'0 0.1
2015-Mar-30 01:30N 43°23' E 004°58'0 0.0
2015-Mar-30 00:30N 43°23' E 004°58'0 0.0
2015-Mar-29 23:33N 43°23' E 004°58'0 0.0
2015-Mar-29 22:33N 43°23' E 004°58'0 0.0
2015-Mar-29 21:30N 43°23' E 004°58'0 0.1
2015-Mar-29 20:30N 43°23' E 004°58'0 0.0
2015-Mar-29 19:33N 43°23' E 004°58'0 0.0
2015-Mar-29 18:24N 43°23' E 004°58'0 0.0
2015-Mar-29 17:30N 43°23' E 004°58'0 0.0
2015-Mar-29 16:24N 43°23' E 004°58'0 0.1
2015-Mar-29 15:33N 43°23' E 004°58'0 0.0
2015-Mar-29 14:30N 43°23' E 004°58'0 0.0
2015-Mar-29 13:33N 43°23' E 004°58'0 0.0
2015-Mar-29 12:33N 43°23' E 004°58'0 0.0
2015-Mar-29 11:33N 43°23' E 004°58'0 0.0
2015-Mar-29 10:33N 43°23' E 004°58'0 0.0
2015-Mar-29 09:33N 43°23' E 004°58'0 0.0
2015-Mar-29 08:30N 43°23' E 004°58'0 0.0
2015-Mar-29 07:33N 43°23' E 004°58'0 0.0
2015-Mar-29 06:30N 43°23' E 004°58'0 0.0
2015-Mar-29 05:33N 43°23' E 004°58'0 0.0
2015-Mar-29 04:33N 43°23' E 004°58'0 0.0
2015-Mar-29 03:33N 43°23' E 004°58'0 0.0
2015-Mar-29 02:33N 43°23' E 004°58'0 0.0
2015-Mar-29 01:24N 43°23' E 004°58'0 0.0
2015-Mar-29 00:30N 43°23' E 004°58'0 0.0
2015-Mar-28 23:33N 43°23' E 004°58'0 0.0
2015-Mar-28 22:30N 43°23' E 004°58'0 0.0
2015-Mar-28 21:33N 43°23' E 004°58'0 0.0
2015-Mar-28 20:30N 43°23' E 004°58'0 0.0
2015-Mar-28 19:30N 43°23' E 004°58'0 0.1
2015-Mar-28 18:24N 43°23' E 004°58'0 0.0
2015-Mar-28 17:33N 43°23' E 004°58'0 0.0
2015-Mar-28 16:30N 43°23' E 004°58'0 0.0
2015-Mar-28 15:27N 43°23' E 004°58'0 0.0
2015-Mar-28 14:30N 43°23' E 004°58'0 0.0
2015-Mar-28 13:33N 43°23' E 004°58'0 0.0
2015-Mar-28 12:18N 43°23' E 004°58'0 0.0
2015-Mar-28 11:33N 43°23' E 004°58'0 0.0
2015-Mar-28 10:33N 43°23' E 004°58'0 0.0
2015-Mar-28 09:33N 43°23' E 004°58'0 0.0
2015-Mar-28 08:33N 43°23' E 004°58'0 0.0
2015-Mar-28 07:33N 43°23' E 004°58'0 0.0
2015-Mar-28 06:30N 43°23' E 004°58'0 0.0
2015-Mar-28 05:33N 43°23' E 004°58'0 0.0
2015-Mar-28 04:33N 43°23' E 004°58'0 0.0
2015-Mar-28 03:33N 43°23' E 004°58'0 0.0
2015-Mar-28 02:33N 43°23' E 004°58'0 0.0
2015-Mar-28 01:33N 43°23' E 004°58'0 0.0
2015-Mar-28 00:33N 43°23' E 004°58'0 0.0
2015-Mar-27 23:30N 43°23' E 004°58'0 0.0
2015-Mar-27 22:30N 43°23' E 004°58'0 0.0
2015-Mar-27 21:30N 43°23' E 004°58'0 0.0
2015-Mar-27 20:33N 43°23' E 004°58'0 0.0
2015-Mar-27 19:30N 43°23' E 004°58'0 0.0
2015-Mar-27 18:33N 43°23' E 004°58'0 0.0
2015-Mar-27 17:33N 43°23' E 004°58'0 0.0
2015-Mar-27 16:33N 43°23' E 004°58'0 0.0
2015-Mar-27 15:30N 43°23' E 004°58'0 0.1
2015-Mar-27 14:33N 43°23' E 004°58'0 0.0
2015-Mar-27 13:33N 43°23' E 004°58'0 0.4
2015-Mar-27 12:33N 43°23' E 004°58'6 5.7
2015-Mar-27 11:34N 43°17' E 005°00'9 8.9
2015-Mar-27 10:33N 43°09' E 005°02'1210.9
2015-Mar-27 09:27N 42°57' E 004°57'9 9.9
2015-Mar-27 08:33N 42°49' E 004°56'43 9.8
2015-Mar-27 04:08N 42°05' E 004°54'1910.1
2015-Mar-27 02:12N 41°46' E 004°51'710.5
2015-Mar-27 01:33N 41°39' E 004°50'1210.9
2015-Mar-27 00:29N 41°27' E 004°49'  
2015-Mar-23 14:07N 36°46' E 003°05'0 0.0
2015-Mar-23 13:33N 36°46' E 003°05'0 0.0
2015-Mar-23 12:33N 36°46' E 003°05'0 0.0
2015-Mar-23 11:33N 36°46' E 003°05'0 0.0
2015-Mar-23 10:30N 36°46' E 003°05'0 0.0
2015-Mar-23 06:10N 36°46' E 003°05'0 0.0
2015-Mar-22 23:27N 36°46' E 003°05'0 0.0
2015-Mar-21 12:12N 36°46' E 003°05'  
Track history (hours):
 
Tides and Currents Weather Stations Pressure Air Temp Water Temp Dewpoint Dewpoint Depression Visibility Wind Speed Wind Dir Waves Ship Positions

Isola Bianca

Last reported at 2015-Mar-30 13:31 UTC. Time now 2015-Mar-30 14:10 UTC.
Position N 43°24' E 004°60'.

Length 183 m; draft 7.5 m.

Type: Ship. MMSI: 247245200.

Date/timePositionNaut miles runAvg speedWind from/ knotsBaromVisibWave heightAir tempDewpointWater temp
2015-Mar-30 13:31N 43°24' E 004°60'0 0.0
2015-Mar-30 12:28N 43°24' E 004°60'0 0.0
2015-Mar-30 11:31N 43°24' E 004°60'0 0.0
2015-Mar-30 10:28N 43°24' E 004°60'0 0.0
2015-Mar-30 09:31N 43°24' E 004°60'0 0.0
2015-Mar-30 08:31N 43°24' E 004°60'0 0.0
2015-Mar-30 07:28N 43°24' E 004°60'0 0.0
2015-Mar-30 06:33N 43°24' E 004°60'0 0.2
2015-Mar-30 05:34N 43°24' E 004°60'1 1.1
2015-Mar-30 04:30N 43°23' E 004°58'0 0.0
2015-Mar-30 03:30N 43°23' E 004°58'0 0.0
2015-Mar-30 02:30N 43°23' E 004°58'0 0.1
2015-Mar-30 01:30N 43°23' E 004°58'0 0.0
2015-Mar-30 00:30N 43°23' E 004°58'0 0.0
2015-Mar-29 23:33N 43°23' E 004°58'0 0.0
2015-Mar-29 22:33N 43°23' E 004°58'0 0.0
2015-Mar-29 21:30N 43°23' E 004°58'0 0.1
2015-Mar-29 20:30N 43°23' E 004°58'0 0.0
2015-Mar-29 19:33N 43°23' E 004°58'0 0.0
2015-Mar-29 18:24N 43°23' E 004°58'0 0.0
2015-Mar-29 17:30N 43°23' E 004°58'0 0.0
2015-Mar-29 16:24N 43°23' E 004°58'0 0.1
2015-Mar-29 15:33N 43°23' E 004°58'0 0.0
2015-Mar-29 14:30N 43°23' E 004°58'0 0.0
2015-Mar-29 13:33N 43°23' E 004°58'0 0.0
2015-Mar-29 12:33N 43°23' E 004°58'0 0.0
2015-Mar-29 11:33N 43°23' E 004°58'0 0.0
2015-Mar-29 10:33N 43°23' E 004°58'0 0.0
2015-Mar-29 09:33N 43°23' E 004°58'0 0.0
2015-Mar-29 08:30N 43°23' E 004°58'0 0.0
2015-Mar-29 07:33N 43°23' E 004°58'0 0.0
2015-Mar-29 06:30N 43°23' E 004°58'0 0.0
2015-Mar-29 05:33N 43°23' E 004°58'0 0.0
2015-Mar-29 04:33N 43°23' E 004°58'0 0.0
2015-Mar-29 03:33N 43°23' E 004°58'0 0.0
2015-Mar-29 02:33N 43°23' E 004°58'0 0.0
2015-Mar-29 01:24N 43°23' E 004°58'0 0.0
2015-Mar-29 00:30N 43°23' E 004°58'0 0.0
2015-Mar-28 23:33N 43°23' E 004°58'0 0.0
2015-Mar-28 22:30N 43°23' E 004°58'0 0.0
2015-Mar-28 21:33N 43°23' E 004°58'0 0.0
2015-Mar-28 20:30N 43°23' E 004°58'0 0.0
2015-Mar-28 19:30N 43°23' E 004°58'0 0.1
2015-Mar-28 18:24N 43°23' E 004°58'0 0.0
2015-Mar-28 17:33N 43°23' E 004°58'0 0.0
2015-Mar-28 16:30N 43°23' E 004°58'0 0.0
2015-Mar-28 15:27N 43°23' E 004°58'0 0.0
2015-Mar-28 14:30N 43°23' E 004°58'0 0.0
2015-Mar-28 13:33N 43°23' E 004°58'0 0.0
2015-Mar-28 12:18N 43°23' E 004°58'0 0.0
2015-Mar-28 11:33N 43°23' E 004°58'0 0.0
2015-Mar-28 10:33N 43°23' E 004°58'0 0.0
2015-Mar-28 09:33N 43°23' E 004°58'0 0.0
2015-Mar-28 08:33N 43°23' E 004°58'0 0.0
2015-Mar-28 07:33N 43°23' E 004°58'0 0.0
2015-Mar-28 06:30N 43°23' E 004°58'0 0.0
2015-Mar-28 05:33N 43°23' E 004°58'0 0.0
2015-Mar-28 04:33N 43°23' E 004°58'0 0.0
2015-Mar-28 03:33N 43°23' E 004°58'0 0.0
2015-Mar-28 02:33N 43°23' E 004°58'0 0.0
2015-Mar-28 01:33N 43°23' E 004°58'0 0.0
2015-Mar-28 00:33N 43°23' E 004°58'0 0.0
2015-Mar-27 23:30N 43°23' E 004°58'0 0.0
2015-Mar-27 22:30N 43°23' E 004°58'0 0.0
2015-Mar-27 21:30N 43°23' E 004°58'0 0.0
2015-Mar-27 20:33N 43°23' E 004°58'0 0.0
2015-Mar-27 19:30N 43°23' E 004°58'0 0.0
2015-Mar-27 18:33N 43°23' E 004°58'0 0.0
2015-Mar-27 17:33N 43°23' E 004°58'0 0.0
2015-Mar-27 16:33N 43°23' E 004°58'0 0.0
2015-Mar-27 15:30N 43°23' E 004°58'0 0.1
2015-Mar-27 14:33N 43°23' E 004°58'0 0.0
2015-Mar-27 13:33N 43°23' E 004°58'0 0.4
2015-Mar-27 12:33N 43°23' E 004°58'6 5.7
2015-Mar-27 11:34N 43°17' E 005°00'9 8.9
2015-Mar-27 10:33N 43°09' E 005°02'1210.9
2015-Mar-27 09:27N 42°57' E 004°57'9 9.9
2015-Mar-27 08:33N 42°49' E 004°56'43 9.8
2015-Mar-27 04:08N 42°05' E 004°54'1910.1
2015-Mar-27 02:12N 41°46' E 004°51'710.5
2015-Mar-27 01:33N 41°39' E 004°50'1210.9
2015-Mar-27 00:29N 41°27' E 004°49'  
2015-Mar-23 14:07N 36°46' E 003°05'0 0.0
2015-Mar-23 13:33N 36°46' E 003°05'0 0.0
2015-Mar-23 12:33N 36°46' E 003°05'0 0.0
2015-Mar-23 11:33N 36°46' E 003°05'0 0.0
2015-Mar-23 10:30N 36°46' E 003°05'0 0.0
2015-Mar-23 06:10N 36°46' E 003°05'0 0.0
2015-Mar-22 23:27N 36°46' E 003°05'0 0.0
2015-Mar-21 12:12N 36°46' E 003°05'  

Dump ship's entire track history